createdAt,value
2023-04-01T00:02:58.196Z,8.87
2023-04-01T00:05:55.750Z,8.86
2023-04-01T00:08:35.608Z,8.84
2023-04-01T00:12:01.327Z,8.82
2023-04-01T00:18:18.125Z,8.83
2023-04-01T00:21:15.789Z,8.83
2023-04-01T00:24:21.951Z,8.79
2023-04-01T00:27:16.892Z,8.77
2023-04-01T00:30:12.297Z,8.73
2023-04-01T00:33:06.603Z,8.70
2023-04-01T00:39:49.758Z,8.48
2023-04-01T00:46:42.869Z,8.34
2023-04-01T00:53:46.945Z,8.34
2023-04-01T00:56:51.085Z,8.40
2023-04-01T01:04:45.568Z,8.38
2023-04-01T01:11:44.882Z,8.31
2023-04-01T01:18:46.466Z,8.37
2023-04-01T01:21:44.450Z,8.38
2023-04-01T01:33:23.777Z,8.53
2023-04-01T01:40:19.108Z,8.66
2023-04-01T01:43:09.032Z,8.72
2023-04-01T01:50:04.400Z,8.99
2023-04-01T01:53:05.594Z,9.04
2023-04-01T01:55:43.640Z,9.10
2023-04-01T01:58:42.584Z,9.14
2023-04-01T02:01:26.898Z,9.21
2023-04-01T02:05:08.412Z,9.26
2023-04-01T02:08:01.730Z,9.26
2023-04-01T02:15:10.237Z,9.32
2023-04-01T02:17:45.569Z,9.32
2023-04-01T02:20:25.871Z,9.27
2023-04-01T02:23:53.419Z,9.30
2023-04-01T02:26:26.219Z,9.27
2023-04-01T02:30:02.293Z,9.23
2023-04-01T02:32:58.587Z,9.16
2023-04-01T02:35:28.590Z,9.13
2023-04-01T02:42:26.873Z,9.10
2023-04-01T02:45:02.485Z,9.14
2023-04-01T02:52:02.055Z,9.11
2023-04-01T02:58:56.792Z,9.11
2023-04-01T03:05:45.945Z,8.96
2023-04-01T03:12:42.269Z,8.87
2023-04-01T03:19:30.206Z,8.68
2023-04-01T03:26:27.991Z,8.51
2023-04-01T03:33:24.872Z,8.38
2023-04-01T03:40:27.383Z,8.32
2023-04-01T03:51:49.947Z,8.17
2023-04-01T03:58:40.311Z,8.15
2023-04-01T04:05:38.034Z,8.14
2023-04-01T04:12:29.521Z,8.23
2023-04-01T04:19:24.195Z,8.34
2023-04-01T04:26:08.949Z,8.35
2023-04-01T04:33:12.822Z,8.40
2023-04-01T04:40:11.242Z,8.53
2023-04-01T04:51:22.636Z,8.52
2023-04-01T04:58:19.299Z,8.56
2023-04-01T05:05:09.609Z,8.45
2023-04-01T05:12:00.361Z,8.15
2023-04-01T05:18:54.481Z,7.86
2023-04-01T05:25:52.515Z,7.79
2023-04-01T05:32:46.358Z,7.86
2023-04-01T05:39:43.604Z,7.94
2023-04-01T05:46:26.269Z,8.03
2023-04-01T05:53:31.647Z,8.18
2023-04-01T06:00:23.031Z,8.32
2023-04-01T06:07:21.534Z,8.58
2023-04-01T06:14:22.720Z,9.00
2023-04-01T06:21:43.381Z,9.26
2023-04-01T06:33:23.389Z,9.65
2023-04-01T06:40:39.312Z,10.06
2023-04-01T06:47:45.468Z,10.42
2023-04-01T06:59:36.303Z,11.10
2023-04-01T07:06:25.485Z,11.53
2023-04-01T07:13:21.701Z,11.67
2023-04-01T07:20:23.325Z,11.81
2023-04-01T07:23:19.228Z,11.88
2023-04-01T07:26:22.060Z,11.93
2023-04-01T07:37:55.411Z,12.01
2023-04-01T07:45:02.389Z,12.10
2023-04-01T07:52:00.208Z,12.16
2023-04-01T07:59:04.729Z,12.16
2023-04-01T08:10:22.408Z,12.28
2023-04-01T08:17:43.096Z,12.18
2023-04-01T08:24:47.487Z,12.19
2023-04-01T08:36:30.994Z,12.32
2023-04-01T08:48:11.783Z,12.68
2023-04-01T08:55:33.745Z,12.65
2023-04-01T09:07:18.681Z,13.12
2023-04-01T09:14:33.860Z,13.43
2023-04-01T09:26:00.180Z,13.35
2023-04-01T09:37:37.882Z,13.53
2023-04-01T09:44:51.081Z,13.53
2023-04-01T09:51:40.714Z,13.43
2023-04-01T09:58:55.527Z,13.18
2023-04-01T10:10:32.216Z,13.39
2023-04-01T10:18:01.535Z,13.56
2023-04-01T10:25:19.095Z,13.69
2023-04-01T10:36:52.410Z,13.85
2023-04-01T10:44:21.418Z,14.19
2023-04-01T10:55:45.646Z,13.98
2023-04-01T11:08:06.687Z,14.43
2023-04-01T11:19:47.535Z,14.70
2023-04-01T11:26:52.615Z,14.28
2023-04-01T11:39:01.432Z,14.37
2023-04-01T11:46:17.620Z,14.29
2023-04-01T11:53:23.632Z,14.67
2023-04-01T12:00:44.857Z,14.81
2023-04-01T12:07:57.032Z,15.34
2023-04-01T12:19:22.693Z,14.72
2023-04-01T12:26:42.729Z,14.29
2023-04-01T12:38:16.465Z,14.59
2023-04-01T12:45:26.098Z,14.69
2023-04-01T12:52:27.938Z,14.90
2023-04-01T12:59:28.331Z,14.98
2023-04-01T13:06:44.551Z,15.00
2023-04-01T13:13:54.117Z,14.91
2023-04-01T13:20:56.578Z,14.55
2023-04-01T13:27:47.068Z,14.47
2023-04-01T13:39:42.562Z,13.08
2023-04-01T13:46:57.273Z,12.23
2023-04-01T13:54:12.180Z,12.06
2023-04-01T14:01:09.004Z,12.15
2023-04-01T14:08:14.559Z,12.29
2023-04-01T14:19:39.026Z,13.04
2023-04-01T14:26:37.762Z,13.53
2023-04-01T14:33:31.471Z,14.02
2023-04-01T14:40:52.156Z,14.80
2023-04-01T14:47:48.851Z,15.11
2023-04-01T14:54:47.596Z,15.28
2023-04-01T15:01:47.584Z,15.25
2023-04-01T15:08:46.472Z,14.91
2023-04-01T15:20:27.997Z,14.85
2023-04-01T15:27:31.370Z,14.84
2023-04-01T15:38:42.340Z,14.91
2023-04-01T15:45:50.940Z,14.94
2023-04-01T15:52:45.479Z,15.01
2023-04-01T16:00:04.348Z,15.04
2023-04-01T16:07:11.252Z,14.87
2023-04-01T16:14:21.317Z,14.76
2023-04-01T16:21:30.070Z,14.77
2023-04-01T16:28:28.603Z,14.84
2023-04-01T16:39:57.358Z,14.81
2023-04-01T16:46:55.147Z,14.62
2023-04-01T16:53:48.766Z,14.52
2023-04-01T17:00:54.186Z,14.32
2023-04-01T17:07:51.050Z,14.08
2023-04-01T17:19:04.490Z,13.69
2023-04-01T17:26:16.932Z,13.43
2023-04-01T17:33:24.003Z,13.04
2023-04-01T17:44:34.655Z,12.67
2023-04-01T17:51:40.851Z,12.51
2023-04-01T17:58:48.066Z,12.26
2023-04-01T18:06:05.024Z,12.23
2023-04-01T18:13:33.326Z,12.08
2023-04-01T18:20:41.499Z,11.81
2023-04-01T18:27:42.327Z,11.82
2023-04-01T18:38:55.466Z,11.78
2023-04-01T18:45:58.830Z,11.75
2023-04-01T18:53:00.682Z,11.58
2023-04-01T19:00:07.154Z,11.44
2023-04-01T19:06:59.730Z,11.28
2023-04-01T19:14:05.662Z,11.27
2023-04-01T19:25:14.609Z,11.12
2023-04-01T19:32:25.238Z,11.12
2023-04-01T19:44:09.559Z,10.91
2023-04-01T19:51:13.269Z,10.89
2023-04-01T19:58:08.220Z,10.86
2023-04-01T20:04:59.506Z,10.92
2023-04-01T20:08:11.697Z,10.88
2023-04-01T20:19:39.624Z,10.76
2023-04-01T20:26:26.959Z,10.23
2023-04-01T20:34:05.823Z,10.50
2023-04-01T20:41:10.469Z,10.72
2023-04-01T20:48:20.129Z,10.78
2023-04-01T20:55:28.863Z,10.86
2023-04-01T21:02:30.632Z,10.78
2023-04-01T21:09:39.622Z,10.80
2023-04-01T21:16:43.940Z,10.76
2023-04-01T21:24:05.319Z,10.79
2023-04-01T21:35:10.868Z,10.65
2023-04-01T21:42:09.508Z,10.62
2023-04-01T21:49:29.833Z,10.61
2023-04-01T21:56:42.817Z,10.47
2023-04-01T22:03:53.462Z,10.38
2023-04-01T22:11:00.131Z,10.29
2023-04-01T22:17:56.175Z,10.27
2023-04-01T22:25:04.743Z,10.24
2023-04-01T22:31:54.758Z,10.20
2023-04-01T22:43:30.965Z,10.02
2023-04-01T22:50:35.325Z,9.93
2023-04-01T22:57:42.496Z,9.97
2023-04-01T23:04:36.029Z,9.87
2023-04-01T23:11:31.902Z,9.82
2023-04-01T23:18:22.382Z,9.74
2023-04-01T23:25:29.583Z,9.75
2023-04-01T23:32:18.078Z,9.65
2023-04-01T23:43:26.012Z,9.38
2023-04-01T23:50:22.458Z,9.37
2023-04-01T23:57:16.005Z,9.21
